Time;durP1;ratioP1;P1;durP2;ratioP2;P2;SDS_P1;SDS_P2;PMS_P1;PMS_P2;Temp;Humidity;BMP_temperature;BMP_pressure;BME280_temperature;BME280_humidity;BME280_pressure;Samples;Min_cycle;Max_cycle;Signal;HPM_P1;HPM_P2
2022/05/08 00:02:58;;;;;;;17.20;8.70;;;;;;;7.62;94.66;100456.51;104777;1274;74906;-67
2022/05/08 00:05:47;;;;;;;14.40;7.70;;;;;;;7.59;95.03;100456.67;104901;1272;68666;-65
2022/05/08 00:08:39;;;;;;;14.60;8.30;;;;;;;7.58;95.02;100461.01;104906;1271;72187;-68
2022/05/08 00:11:31;;;;;;;18.20;8.60;;;;;;;7.56;94.81;100463.41;104960;1271;60274;-67
2022/05/08 00:14:22;;;;;;;15.30;8.60;;;;;;;7.56;95.79;100462.65;104839;1271;60435;-65
2022/05/08 00:17:11;;;;;;;16.40;8.30;;;;;;;7.56;95.22;100457.93;104836;1272;73728;-66
2022/05/08 00:20:07;;;;;;;14.20;8.20;;;;;;;7.55;95.29;100462.55;104946;1271;67739;-65
2022/05/08 00:22:55;;;;;;;16.10;8.50;;;;;;;7.56;95.01;100462.52;104775;1273;73250;-64
2022/05/08 00:25:43;;;;;;;15.70;8.00;;;;;;;7.55;94.96;100464.14;104912;1273;59768;-66
2022/05/08 00:28:31;;;;;;;17.70;9.20;;;;;;;7.53;94.85;100463.21;105016;1271;61817;-67
2022/05/08 00:31:19;;;;;;;19.10;8.70;;;;;;;7.50;95.16;100466.55;105021;1271;73599;-68
2022/05/08 00:34:08;;;;;;;16.40;8.50;;;;;;;7.46;95.51;100461.11;105283;1271;69458;-67
2022/05/08 00:36:59;;;;;;;18.40;8.80;;;;;;;7.42;95.09;100460.84;104880;1271;73405;-66
2022/05/08 00:39:47;;;;;;;15.80;8.60;;;;;;;7.38;95.41;100459.51;105315;1271;59792;-67
2022/05/08 00:42:38;;;;;;;14.70;8.10;;;;;;;7.31;95.81;100456.52;104891;1271;59565;-67
2022/05/08 00:45:26;;;;;;;17.40;9.40;;;;;;;7.26;95.94;100459.48;104871;1271;74688;-67
2022/05/08 00:48:14;;;;;;;21.40;9.80;;;;;;;7.21;96.18;100452.69;104774;1271;69649;-68
2022/05/08 00:51:08;;;;;;;16.30;8.60;;;;;;;7.18;96.67;100452.89;104744;1271;73474;-66
2022/05/08 00:53:58;;;;;;;17.30;9.60;;;;;;;7.14;96.44;100449.89;104551;1274;59822;-67
2022/05/08 00:56:47;;;;;;;16.50;8.90;;;;;;;7.12;96.94;100455.86;104880;1272;59540;-66
2022/05/08 00:59:35;;;;;;;14.60;8.30;;;;;;;7.10;97.70;100458.05;104706;1274;73638;-65
2022/05/08 01:02:23;;;;;;;19.50;9.20;;;;;;;7.10;97.83;100458.05;104797;1274;68577;-67
2022/05/08 01:05:11;;;;;;;18.40;9.40;;;;;;;7.09;97.82;100460.58;104845;1273;74008;-64
2022/05/08 01:07:59;;;;;;;15.40;8.40;;;;;;;7.09;98.84;100462.69;104793;1274;61201;-67
2022/05/08 01:10:48;;;;;;;17.70;9.50;;;;;;;7.09;98.54;100465.70;104728;1273;61532;-66
2022/05/08 01:13:38;;;;;;;16.00;8.80;;;;;;;7.09;99.16;100461.48;105061;1274;74796;-64
2022/05/08 01:16:26;;;;;;;15.00;8.30;;;;;;;7.09;99.26;100461.84;104918;1274;69002;-66
2022/05/08 01:19:15;;;;;;;17.90;9.70;;;;;;;7.09;99.02;100462.38;104723;1274;71823;-68
2022/05/08 01:22:04;;;;;;;15.50;9.20;;;;;;;7.08;98.96;100463.83;104688;1274;59759;-67
2022/05/08 01:24:52;;;;;;;18.00;9.90;;;;;;;7.07;98.94;100468.16;104987;1274;61482;-68
2022/05/08 01:27:40;;;;;;;15.00;8.30;;;;;;;7.05;98.84;100469.27;105041;1274;72785;-66
2022/05/08 01:30:28;;;;;;;16.70;9.70;;;;;;;7.03;98.89;100474.54;104830;1273;67149;-67
2022/05/08 01:33:17;;;;;;;16.70;10.20;;;;;;;7.00;98.90;100476.96;105039;1274;72115;-67
2022/05/08 01:36:07;;;;;;;16.80;9.30;;;;;;;6.98;99.24;100480.61;104853;1273;60728;-68
2022/05/08 01:38:56;;;;;;;17.30;9.30;;;;;;;6.92;99.02;100474.63;104138;1274;1003885;-68
2022/05/08 01:41:44;;;;;;;16.30;9.40;;;;;;;6.92;98.94;100480.95;104896;1274;74251;-64
2022/05/08 01:44:34;;;;;;;18.60;9.80;;;;;;;6.88;98.86;100480.83;105050;1274;68614;-65
2022/05/08 01:50:30;;;;;;;18.30;9.90;;;;;;;6.78;99.22;100485.98;104829;1274;61251;-65
2022/05/08 01:53:19;;;;;;;17.00;10.00;;;;;;;6.73;99.10;100486.74;104992;1274;60839;-64
2022/05/08 01:56:08;;;;;;;16.90;8.90;;;;;;;6.70;99.12;100480.05;104979;1274;74126;-63
2022/05/08 01:58:56;;;;;;;19.20;9.20;;;;;;;6.68;99.23;100483.18;105179;1275;69421;-63
2022/05/08 02:01:44;;;;;;;16.80;10.10;;;;;;;6.64;99.28;100480.38;104836;1273;72216;-65
2022/05/08 02:04:33;;;;;;;16.10;9.30;;;;;;;6.62;99.79;100480.99;104819;1273;59718;-63
2022/05/08 02:07:21;;;;;;;16.10;8.50;;;;;;;6.60;99.90;100479.36;104712;1273;60031;-63
2022/05/08 02:10:11;;;;;;;18.20;9.20;;;;;;;6.60;100.00;100481.46;104706;1274;72620;-62
2022/05/08 02:12:59;;;;;;;17.40;8.80;;;;;;;6.59;99.86;100485.60;104737;1274;69687;-64
2022/05/08 02:15:47;;;;;;;16.30;8.70;;;;;;;6.57;100.00;100483.61;104985;1274;73802;-64
2022/05/08 02:18:35;;;;;;;20.00;9.00;;;;;;;6.56;100.00;100485.94;105118;1272;60844;-64
2022/05/08 02:21:23;;;;;;;16.00;9.70;;;;;;;6.54;100.00;100482.69;104733;1274;60230;-64
2022/05/08 02:24:11;;;;;;;15.10;8.90;;;;;;;6.53;100.00;100479.92;104823;1274;74003;-63
2022/05/08 02:26:59;;;;;;;18.90;9.80;;;;;;;6.50;99.92;100478.83;104734;1275;69584;-62
2022/05/08 02:29:52;;;;;;;16.60;9.10;;;;;;;6.47;100.00;100473.69;105000;1273;73977;-65
2022/05/08 02:32:40;;;;;;;18.20;9.60;;;;;;;6.45;99.83;100475.42;104908;1274;60377;-65
2022/05/08 02:35:28;;;;;;;16.10;8.60;;;;;;;6.42;99.99;100477.88;104758;1274;61546;-64
2022/05/08 02:38:17;;;;;;;16.80;9.30;;;;;;;6.35;99.85;100467.30;104872;1274;74813;-64
2022/05/08 02:41:05;;;;;;;17.50;9.40;;;;;;;6.37;99.93;100472.45;104813;1273;68760;-66
2022/05/08 02:43:55;;;;;;;21.40;9.50;;;;;;;6.35;99.88;100473.30;104782;1274;74233;-64
2022/05/08 02:46:43;;;;;;;16.20;8.50;;;;;;;6.34;99.95;100469.34;104727;1273;59842;-68
2022/05/08 02:49:32;;;;;;;17.50;9.70;;;;;;;6.31;100.00;100465.75;105026;1273;60916;-67
2022/05/08 02:52:20;;;;;;;19.00;9.40;;;;;;;6.30;99.95;100464.24;104736;1274;74697;-67
2022/05/08 02:58:34;;;;;;;17.80;8.90;;;;;;;6.28;100.00;100463.83;104721;1273;72491;-66
2022/05/08 03:01:23;;;;;;;18.70;9.00;;;;;;;6.26;99.86;100466.71;104903;1273;59718;-67
2022/05/08 03:04:11;;;;;;;18.50;8.80;;;;;;;6.26;99.86;100464.28;104706;1272;59581;-67
2022/05/08 03:06:58;;;;;;;17.90;8.20;;;;;;;6.25;99.97;100465.00;104668;1273;72876;-65
2022/05/08 03:09:46;;;;;;;13.90;7.40;;;;;;;6.23;99.87;100463.21;103967;1274;1003487;-66
2022/05/08 03:12:34;;;;;;;16.50;7.60;;;;;;;6.25;99.83;100468.52;104609;1274;73569;-66
2022/05/08 03:15:23;;;;;;;16.50;8.30;;;;;;;6.25;99.73;100471.35;104917;1273;59752;-65
2022/05/08 03:18:11;;;;;;;20.30;8.80;;;;;;;6.24;99.64;100470.02;104951;1273;60578;-63
2022/05/08 03:21:02;;;;;;;22.90;8.50;;;;;;;6.23;99.54;100473.22;104965;1273;73833;-62
2022/05/08 03:23:51;;;;;;;16.70;7.20;;;;;;;6.22;99.20;100476.09;104916;1273;68794;-63
2022/05/08 03:26:39;;;;;;;17.80;8.30;;;;;;;6.22;99.10;100478.23;104716;1273;74228;-62
2022/05/08 03:29:27;;;;;;;18.40;7.60;;;;;;;6.22;99.23;100479.08;104754;1273;59793;-64
2022/05/08 03:32:15;;;;;;;17.70;7.70;;;;;;;6.24;98.84;100483.73;104721;1273;59770;-64
2022/05/08 03:35:03;;;;;;;15.90;7.20;;;;;;;6.26;98.78;100482.96;104696;1274;72160;-67
2022/05/08 03:37:52;;;;;;;16.20;7.10;;;;;;;6.27;98.69;100480.77;105015;1273;67090;-65
2022/05/08 03:40:40;;;;;;;18.40;7.30;;;;;;;6.29;98.32;100482.41;104704;1274;74421;-67
2022/05/08 03:43:28;;;;;;;15.70;6.60;;;;;;;6.32;98.37;100482.46;104485;1273;59648;-67
2022/05/08 03:46:16;;;;;;;15.50;6.60;;;;;;;6.36;98.14;100484.73;104789;1273;61799;-67
2022/05/08 03:49:04;;;;;;;15.70;6.80;;;;;;;6.40;97.82;100486.97;104624;1273;73420;-68
2022/05/08 03:51:52;;;;;;;16.40;7.10;;;;;;;6.44;97.71;100490.12;104917;1273;69449;-65
2022/05/08 03:54:40;;;;;;;18.70;6.90;;;;;;;6.49;97.54;100488.96;105006;1275;73886;-67
2022/05/08 03:57:29;;;;;;;13.00;6.40;;;;;;;6.53;97.41;100490.34;104900;1273;59758;-70
2022/05/08 04:00:18;;;;;;;16.30;7.20;;;;;;;6.58;96.96;100490.95;104684;1274;59673;-65
2022/05/08 04:03:06;;;;;;;16.40;6.40;;;;;;;6.64;96.82;100490.77;104877;1274;73793;-66
2022/05/08 04:05:54;;;;;;;18.60;6.40;;;;;;;6.72;96.21;100495.29;105009;1274;68034;-69
2022/05/08 04:08:42;;;;;;;15.50;6.20;;;;;;;6.79;96.19;100495.25;104984;1274;73374;-67
2022/05/08 04:11:30;;;;;;;19.90;6.10;;;;;;;6.88;95.39;100496.35;104895;1274;60248;-67
2022/05/08 04:14:18;;;;;;;16.00;6.80;;;;;;;6.96;95.23;100487.97;105267;1274;60291;-67
2022/05/08 04:17:06;;;;;;;14.00;5.70;;;;;;;7.05;94.54;100488.17;104691;1274;72361;-71
2022/05/08 04:19:55;;;;;;;13.50;5.40;;;;;;;7.12;94.05;100492.87;104714;1274;66440;-66
2022/05/08 04:25:53;;;;;;;18.60;6.60;;;;;;;7.24;92.83;100495.44;104714;1274;60559;-68
2022/05/08 04:28:41;;;;;;;14.20;6.20;;;;;;;7.29;92.86;100496.52;104721;1273;61040;-70
2022/05/08 04:31:29;;;;;;;13.30;5.90;;;;;;;7.37;92.57;100498.55;105074;1274;74660;-69
2022/05/08 04:34:17;;;;;;;16.70;6.10;;;;;;;7.45;91.83;100496.85;104977;1274;68076;-72
2022/05/08 04:37:05;;;;;;;15.20;5.60;;;;;;;7.53;91.37;100502.02;105296;1274;72664;-69
2022/05/08 04:39:53;;;;;;;15.70;6.20;;;;;;;7.62;90.78;100507.37;104984;1274;59726;-70
2022/05/08 04:42:41;;;;;;;15.00;6.10;;;;;;;7.71;90.25;100509.46;104680;1274;59645;-70
2022/05/08 04:45:30;;;;;;;18.10;6.10;;;;;;;7.80;90.04;100510.87;105532;1274;73372;-71
2022/05/08 04:48:17;;;;;;;18.10;6.80;;;;;;;7.91;89.51;100506.05;105010;1274;68213;-70
2022/05/08 04:51:05;;;;;;;12.90;5.60;;;;;;;8.01;88.84;100506.27;104863;1274;74321;-69
2022/05/08 04:53:54;;;;;;;16.00;5.40;;;;;;;8.12;88.39;100508.80;104869;1274;59653;-67
2022/05/08 04:56:42;;;;;;;13.30;5.60;;;;;;;8.24;87.02;100505.96;104780;1274;60610;-69
2022/05/08 04:59:30;;;;;;;13.30;4.80;;;;;;;8.36;86.65;100511.10;105050;1274;73498;-69
2022/05/08 05:02:17;;;;;;;13.50;4.50;;;;;;;8.49;85.01;100514.56;105316;1274;65723;-67
2022/05/08 05:05:06;;;;;;;13.00;5.30;;;;;;;8.65;84.18;100510.53;105177;1274;73995;-67
2022/05/08 05:07:54;;;;;;;14.20;4.90;;;;;;;8.94;82.94;100514.61;104736;1274;60080;-70
2022/05/08 05:10:42;;;;;;;10.30;4.20;;;;;;;9.75;80.09;100511.45;105074;1273;60457;-70
2022/05/08 05:13:29;;;;;;;13.40;4.50;;;;;;;11.10;74.71;100511.99;104776;1274;74812;-69
2022/05/08 05:16:17;;;;;;;12.90;4.20;;;;;;;12.59;67.55;100506.14;105116;1274;69277;-69
2022/05/08 05:19:06;;;;;;;11.30;3.60;;;;;;;14.11;62.19;100503.91;105081;1275;74502;-69
2022/05/08 05:21:54;;;;;;;11.30;3.80;;;;;;;15.55;58.19;100496.44;105138;1274;59706;-64
2022/05/08 05:24:42;;;;;;;13.40;3.90;;;;;;;16.76;52.11;100497.94;104758;1274;61103;-62
2022/05/08 05:27:30;;;;;;;13.40;4.60;;;;;;;17.63;47.96;100494.30;104698;1274;74582;-63
2022/05/08 05:30:18;;;;;;;12.30;3.30;;;;;;;18.49;47.00;100492.48;104920;1274;68320;-63
2022/05/08 05:33:07;;;;;;;10.80;3.00;;;;;;;19.24;43.74;100492.20;104660;1274;74225;-64
2022/05/08 05:35:55;;;;;;;9.10;2.60;;;;;;;19.81;40.10;100481.93;104736;1274;59746;-64
2022/05/08 05:38:43;;;;;;;11.00;3.00;;;;;;;20.26;38.97;100484.64;104698;1274;59568;-63
2022/05/08 05:41:32;;;;;;;9.20;2.50;;;;;;;20.78;38.01;100486.95;104784;1274;71766;-63
2022/05/08 05:44:24;;;;;;;9.40;2.70;;;;;;;21.54;37.47;100483.04;104839;1274;68928;-64
2022/05/08 05:50:21;;;;;;;10.60;2.90;;;;;;;22.25;32.71;100484.65;104979;1274;59717;-63
2022/05/08 05:53:09;;;;;;;9.90;2.90;;;;;;;22.54;32.20;100479.50;104737;1274;62353;-63
2022/05/08 05:55:59;;;;;;;10.20;2.90;;;;;;;22.88;31.03;100478.77;104764;1274;73625;-61
2022/05/08 05:58:48;;;;;;;7.90;2.80;;;;;;;23.40;30.40;100486.64;105127;1274;68958;-61
2022/05/08 06:01:35;;;;;;;9.60;2.40;;;;;;;23.72;29.71;100487.90;104929;1274;72730;-63
2022/05/08 06:04:23;;;;;;;9.30;2.70;;;;;;;24.26;28.86;100488.27;105050;1274;59373;-63
2022/05/08 06:07:12;;;;;;;9.90;2.30;;;;;;;24.58;27.71;100490.80;104888;1274;59633;-68
2022/05/08 06:10:03;;;;;;;8.50;2.20;;;;;;;24.76;27.17;100490.98;104699;1274;73639;-67
2022/05/08 06:12:51;;;;;;;9.60;2.90;;;;;;;24.83;26.44;100493.79;104804;1274;69763;-67
2022/05/08 06:15:39;;;;;;;8.60;2.10;;;;;;;24.93;25.92;100501.48;104704;1272;72528;-66
2022/05/08 06:18:29;;;;;;;7.40;1.90;;;;;;;25.07;26.20;100496.35;104923;1274;59807;-63
2022/05/08 06:21:17;;;;;;;8.90;2.40;;;;;;;25.48;25.92;100495.67;104591;1274;59741;-66
2022/05/08 06:24:05;;;;;;;9.00;2.30;;;;;;;25.98;25.92;100499.70;104640;1274;73172;-65
2022/05/08 06:26:53;;;;;;;9.70;2.40;;;;;;;26.19;24.34;100498.30;104692;1275;69716;-69
2022/05/08 06:29:41;;;;;;;8.60;2.20;;;;;;;26.27;23.89;100501.14;104744;1274;73348;-68
2022/05/08 06:32:29;;;;;;;8.10;1.90;;;;;;;26.35;24.05;100495.73;104883;1273;59535;-67
2022/05/08 06:35:39;;;;;;;10.60;2.60;;;;;;;26.68;23.91;100497.04;104748;1274;62048;-66
2022/05/08 06:38:27;;;;;;;9.80;2.30;;;;;;;27.21;23.13;100499.74;104687;1274;74154;-64
2022/05/08 06:41:14;;;;;;;7.80;2.00;;;;;;;27.73;21.75;100499.48;104764;1274;67677;-64
2022/05/08 06:44:03;;;;;;;8.20;2.10;;;;;;;27.86;21.38;100496.39;104677;1273;73280;-67
2022/05/08 06:46:51;;;;;;;10.70;2.40;;;;;;;27.83;21.70;100493.63;104886;1274;60269;-67
2022/05/08 06:49:38;;;;;;;9.90;2.10;;;;;;;28.20;21.57;100493.39;104899;1274;61841;-65
2022/05/08 06:52:26;;;;;;;10.90;2.10;;;;;;;28.54;20.73;100489.90;105077;1274;74501;-63
2022/05/08 06:55:14;;;;;;;8.10;1.60;;;;;;;28.92;20.01;100493.65;104910;1274;69598;-63
2022/05/08 06:58:03;;;;;;;7.90;1.80;;;;;;;29.08;19.00;100493.98;104670;1274;72113;-66
2022/05/08 07:03:58;;;;;;;8.00;1.50;;;;;;;28.59;17.64;100508.59;105269;1274;60749;-71
2022/05/08 07:06:47;;;;;;;8.40;1.90;;;;;;;28.33;18.11;100509.39;105095;1274;74748;-68
2022/05/08 07:09:35;;;;;;;7.10;1.70;;;;;;;28.22;18.45;100509.60;105169;1274;67023;-67
2022/05/08 07:12:23;;;;;;;6.50;1.50;;;;;;;28.32;18.51;100508.86;104811;1273;74242;-68
2022/05/08 07:15:11;;;;;;;6.30;1.60;;;;;;;28.52;18.24;100506.79;104839;1274;59670;-72
2022/05/08 07:17:59;;;;;;;7.60;1.70;;;;;;;28.68;17.82;100515.23;105304;1274;60249;-73
2022/05/08 07:20:47;;;;;;;7.70;1.50;;;;;;;28.59;17.33;100514.98;104878;1274;71028;-72
2022/05/08 07:23:35;;;;;;;7.70;1.40;;;;;;;28.26;17.15;100521.88;105054;1274;66785;-73
2022/05/08 07:26:23;;;;;;;6.20;1.50;;;;;;;27.90;17.30;100523.95;105420;1273;71644;-71
2022/05/08 07:29:11;;;;;;;8.20;1.50;;;;;;;28.02;17.78;100530.13;105118;1274;59699;-75
2022/05/08 07:31:59;;;;;;;6.50;1.40;;;;;;;28.30;17.21;100532.61;105162;1274;60428;-73
2022/05/08 07:37:54;;;;;;;8.00;1.50;;;;;;;28.34;16.26;100533.39;105326;1273;67811;-72
2022/05/08 07:40:47;;;;;;;7.70;1.50;;;;;;;28.17;16.70;100542.36;105089;1273;72799;-71
2022/05/08 07:43:35;;;;;;;5.50;1.20;;;;;;;27.63;17.15;100541.30;105016;1273;59732;-69
2022/05/08 07:46:25;;;;;;;7.10;1.50;;;;;;;27.53;17.62;100539.59;105001;1274;60504;-70
2022/05/08 07:49:13;;;;;;;6.40;1.60;;;;;;;27.83;17.51;100543.90;105089;1274;72810;-72
2022/05/08 07:52:01;;;;;;;7.30;1.50;;;;;;;27.70;17.55;100543.45;104968;1273;68109;-69
2022/05/08 07:54:49;;;;;;;7.80;1.70;;;;;;;27.71;17.81;100543.10;105194;1274;74176;-72
2022/05/08 07:57:37;;;;;;;5.70;1.20;;;;;;;27.65;17.83;100554.36;105631;1274;59851;-69
2022/05/08 08:00:25;;;;;;;7.50;1.60;;;;;;;27.47;17.86;100552.83;105142;1274;62708;-74
2022/05/08 08:03:13;;;;;;;6.90;1.70;;;;;;;27.54;17.94;100559.37;105082;1274;73661;-71
2022/05/08 08:06:05;;;;;;;7.80;2.00;;;;;;;27.62;18.58;100559.18;105110;1273;68070;-73
2022/05/08 08:08:56;;;;;;;7.20;1.60;;;;;;;27.81;18.82;100560.65;104818;1274;73294;-73
2022/05/08 08:11:50;;;;;;;7.00;1.80;;;;;;;27.73;18.60;100566.23;105234;1274;59808;-70
2022/05/08 08:14:38;;;;;;;8.00;1.80;;;;;;;27.79;18.97;100566.21;104811;1274;59651;-70
2022/05/08 08:17:36;;;;;;;8.10;1.70;;;;;;;27.96;18.85;100569.94;105203;1274;74665;-70
2022/05/08 08:20:24;;;;;;;7.90;2.00;;;;;;;28.06;18.71;100566.89;105097;1274;67841;-70
2022/05/08 08:23:12;;;;;;;9.60;2.30;;;;;;;28.35;19.18;100569.45;104730;1273;72140;-69
2022/05/08 08:26:00;;;;;;;9.20;2.10;;;;;;;28.59;18.61;100573.23;104840;1273;59664;-74
2022/05/08 08:28:48;;;;;;;8.90;2.10;;;;;;;28.47;18.87;100574.64;105277;1271;59632;-75
2022/05/08 08:31:36;;;;;;;7.20;1.90;;;;;;;28.48;18.68;100567.59;105570;1271;73589;-74
2022/05/08 08:34:26;;;;;;;8.60;2.00;;;;;;;28.42;18.95;100573.04;105396;1271;67964;-70
2022/05/08 08:37:16;;;;;;;8.40;1.90;;;;;;;28.58;18.48;100578.11;105099;1270;74572;-76
2022/05/08 08:40:07;;;;;;;7.00;1.40;;;;;;;28.51;18.77;100579.46;105253;1273;59675;-72
2022/05/08 08:42:58;;;;;;;8.40;2.00;;;;;;;28.68;18.66;100576.52;105350;1273;60507;-73
2022/05/08 08:49:23;;;;;;;8.40;1.90;;;;;;;28.61;18.59;100579.57;105785;1273;66264;-71
2022/05/08 08:52:12;;;;;;;9.20;1.90;;;;;;;28.87;18.47;100583.64;105220;1273;74418;-72
2022/05/08 08:54:59;;;;;;;7.40;1.80;;;;;;;29.04;18.68;100586.34;105051;1273;59791;-70
2022/05/08 08:57:47;;;;;;;9.10;2.30;;;;;;;29.17;18.38;100583.16;105021;1274;60464;-70
2022/05/08 09:00:36;;;;;;;8.30;1.80;;;;;;;29.16;18.43;100589.66;105003;1274;72045;-69
2022/05/08 09:03:26;;;;;;;8.10;1.90;;;;;;;28.93;18.60;100593.33;104981;1274;67809;-73
2022/05/08 09:06:14;;;;;;;7.40;1.80;;;;;;;28.47;19.13;100595.98;105026;1275;72783;-73
2022/05/08 09:09:26;;;;;;;7.80;2.10;;;;;;;28.51;19.19;100603.23;105775;1274;273828;-74
2022/05/08 09:12:17;;;;;;;8.90;2.00;;;;;;;28.40;18.83;100599.63;105163;1274;59684;-74
2022/05/08 09:15:38;;;;;;;7.70;1.70;;;;;;;28.59;19.16;100603.52;105236;1273;73623;-75
2022/05/08 09:18:27;;;;;;;9.30;2.00;;;;;;;28.77;18.24;100609.42;104903;1280;68539;-73
2022/05/08 09:24:32;;;;;;;8.20;1.60;;;;;;;28.91;18.74;100603.65;106429;1278;59647;-77
2022/05/08 09:27:22;;;;;;;7.40;1.70;;;;;;;28.77;18.52;100614.25;106941;1279;60266;-70
2022/05/08 09:30:11;;;;;;;9.80;2.80;;;;;;;28.88;18.34;100608.29;106926;1279;72146;-71
2022/05/08 09:33:03;;;;;;;9.40;2.00;;;;;;;28.86;18.53;100612.01;106566;1279;68419;-75
2022/05/08 09:35:56;;;;;;;7.90;1.70;;;;;;;28.84;18.86;100613.09;105754;1279;71320;-71
2022/05/08 09:38:54;;;;;;;7.90;1.70;;;;;;;28.97;18.77;100606.63;104949;1280;59688;-69
2022/05/08 09:41:43;;;;;;;9.80;2.40;;;;;;;29.06;18.87;100613.02;104515;1279;60395;-72
2022/05/08 09:44:33;;;;;;;7.60;1.60;;;;;;;28.03;19.41;100619.58;104487;1279;74550;-73
2022/05/08 09:47:47;;;;;;;8.00;1.50;;;;;;;27.62;20.65;100617.35;104664;1279;69593;-68
2022/05/08 09:50:35;;;;;;;9.40;2.40;;;;;;;27.59;20.55;100618.08;104709;1279;73147;-75
2022/05/08 09:53:25;;;;;;;8.40;1.70;;;;;;;27.69;20.72;100615.80;104662;1278;61170;-75
2022/05/08 09:56:14;;;;;;;8.20;2.40;;;;;;;28.25;19.97;100623.63;104932;1273;60558;-74
2022/05/08 09:59:06;;;;;;;8.70;1.90;;;;;;;28.34;19.81;100627.05;104923;1273;72113;-71
2022/05/08 10:01:54;;;;;;;10.10;2.10;;;;;;;28.02;20.17;100625.64;104771;1274;69297;-73
2022/05/08 10:04:43;;;;;;;9.30;2.00;;;;;;;27.41;20.50;100628.65;104956;1273;71670;-71
2022/05/08 10:07:38;;;;;;;7.10;1.50;;;;;;;26.61;21.73;100631.52;105270;1273;59826;-70
2022/05/08 10:13:56;;;;;;;7.90;1.60;;;;;;;25.13;23.51;100644.82;104707;1273;74334;-71
2022/05/08 10:16:55;;;;;;;9.30;1.90;;;;;;;23.88;24.55;100653.84;104962;1273;68365;-69
2022/05/08 10:19:46;;;;;;;7.80;1.70;;;;;;;23.82;25.08;100656.37;105372;1273;72463;-77
2022/05/08 10:22:49;;;;;;;7.60;1.60;;;;;;;24.83;24.02;100647.38;105028;1274;59730;-78
2022/05/08 10:25:38;;;;;;;8.20;1.60;;;;;;;25.59;23.50;100641.73;105215;1272;59710;-78
2022/05/08 10:28:27;;;;;;;8.50;1.70;;;;;;;25.92;23.14;100643.05;105011;1273;73756;-73
2022/05/08 10:31:51;;;;;;;7.60;1.70;;;;;;;25.19;22.99;100644.59;105205;1274;67704;-73
2022/05/08 10:34:40;;;;;;;8.70;1.80;;;;;;;24.63;23.55;100653.86;104739;1274;72774;-73
2022/05/08 10:37:28;;;;;;;7.70;1.60;;;;;;;25.01;23.30;100642.78;104887;1273;59756;-73
2022/05/08 10:40:22;;;;;;;7.40;1.50;;;;;;;25.83;22.60;100643.65;105193;1273;60882;-71
2022/05/08 10:43:10;;;;;;;8.30;1.90;;;;;;;26.29;21.81;100646.80;105042;1273;72922;-72
2022/05/08 10:46:20;;;;;;;7.60;1.70;;;;;;;26.67;21.36;100644.92;105074;1274;67414;-74
2022/05/08 10:49:09;;;;;;;10.10;1.90;;;;;;;26.60;21.13;100651.57;105268;1274;72989;-71
2022/05/08 10:52:07;;;;;;;7.90;2.50;;;;;;;26.03;20.92;100651.83;105068;1274;59765;-74
2022/05/08 10:55:01;;;;;;;6.70;1.40;;;;;;;26.53;21.13;100652.39;104999;1274;59566;-70
2022/05/08 10:57:52;;;;;;;7.90;2.40;;;;;;;25.81;21.89;100652.07;105015;1273;72979;-71
2022/05/08 11:00:40;;;;;;;7.10;1.70;;;;;;;26.80;21.34;100642.71;105335;1273;68128;-73
2022/05/08 11:03:29;;;;;;;8.60;2.00;;;;;;;27.63;20.17;100644.91;104968;1273;72749;-74
2022/05/08 11:06:21;;;;;;;7.60;1.80;;;;;;;27.95;19.49;100645.07;104901;1273;59770;-72
2022/05/08 11:09:10;;;;;;;6.30;1.50;;;;;;;26.47;20.01;100649.06;105015;1273;59747;-70
2022/05/08 11:12:05;;;;;;;7.60;1.60;;;;;;;25.58;20.92;100649.73;104694;1273;74074;-71
2022/05/08 11:15:08;;;;;;;8.40;1.80;;;;;;;25.00;21.97;100652.11;105060;1273;67828;-71
2022/05/08 11:18:04;;;;;;;10.00;3.20;;;;;;;24.65;22.36;100659.58;105237;1273;72823;-71
2022/05/08 11:20:59;;;;;;;7.10;2.10;;;;;;;24.83;22.15;100656.33;105412;1273;59834;-71
2022/05/08 11:23:48;;;;;;;8.20;2.10;;;;;;;24.78;22.52;100661.35;105539;1273;61072;-70
2022/05/08 11:26:35;;;;;;;7.50;1.70;;;;;;;24.84;22.38;100655.62;105182;1273;74208;-72
2022/05/08 11:29:23;;;;;;;6.60;1.90;;;;;;;25.12;22.19;100646.41;105491;1273;66821;-71
2022/05/08 11:38:24;;;;;;;9.00;2.30;;;;;;;24.30;23.31;100657.98;105100;1273;60007;-71
2022/05/08 11:41:16;;;;;;;7.70;2.00;;;;;;;24.35;23.45;100656.84;105089;1273;71526;-76
2022/05/08 11:44:17;;;;;;;8.20;2.10;;;;;;;24.31;27.08;100667.48;105133;1273;68038;-73
2022/05/08 11:47:10;;;;;;;9.30;2.60;;;;;;;23.63;31.84;100671.61;105022;1273;71673;-70
2022/05/08 11:49:57;;;;;;;8.00;2.50;;;;;;;23.05;33.15;100678.39;104839;1273;59577;-72
2022/05/08 11:52:46;;;;;;;9.20;2.90;;;;;;;22.40;33.99;100673.50;105045;1273;60549;-72
2022/05/08 11:55:43;;;;;;;9.90;3.00;;;;;;;21.67;35.86;100671.67;104744;1274;74721;-72
2022/05/08 11:58:32;;;;;;;11.70;2.70;;;;;;;21.05;37.49;100679.78;105046;1274;68038;-73
2022/05/08 12:01:24;;;;;;;9.80;2.90;;;;;;;20.71;38.52;100685.00;104716;1274;72922;-71
2022/05/08 12:04:27;;;;;;;8.40;2.50;;;;;;;20.32;39.48;100690.86;105031;1274;59704;-72
2022/05/08 12:07:15;;;;;;;9.30;2.70;;;;;;;19.96;40.80;100695.45;104852;1274;60654;-73
2022/05/08 12:10:03;;;;;;;7.20;2.60;;;;;;;19.69;41.72;100693.92;105174;1274;73208;-74
2022/05/08 12:13:05;;;;;;;10.80;2.90;;;;;;;19.60;42.47;100697.48;104666;1274;68950;-73
2022/05/08 12:16:17;;;;;;;10.90;4.00;;;;;;;19.51;42.35;100704.56;104848;1274;71540;-73
2022/05/08 12:19:13;;;;;;;7.10;1.90;;;;;;;19.33;40.72;100706.20;104852;1274;59788;-73
2022/05/08 12:22:17;;;;;;;9.60;2.40;;;;;;;19.05;38.48;100701.75;105030;1274;61534;-74
2022/05/08 12:25:09;;;;;;;9.10;2.20;;;;;;;18.86;39.38;100699.33;105364;1274;73295;-73
2022/05/08 12:27:57;;;;;;;13.00;3.20;;;;;;;18.75;39.80;100700.98;105102;1273;66827;-73
2022/05/08 12:30:45;;;;;;;7.10;2.20;;;;;;;18.57;40.15;100707.71;104901;1273;73567;-74
2022/05/08 12:33:33;;;;;;;7.90;2.50;;;;;;;18.37;40.16;100706.44;104855;1273;59618;-72
2022/05/08 12:36:21;;;;;;;10.40;3.10;;;;;;;18.22;43.31;100714.42;105082;1273;61102;-77
2022/05/08 12:39:10;;;;;;;7.80;2.90;;;;;;;18.01;45.32;100714.73;105009;1273;72227;-72
2022/05/08 12:41:57;;;;;;;12.30;3.40;;;;;;;17.67;46.71;100718.91;105128;1271;67754;-74
2022/05/08 12:44:45;;;;;;;11.90;3.10;;;;;;;17.44;47.71;100723.98;104817;1273;72035;-73
2022/05/08 12:47:33;;;;;;;7.90;3.00;;;;;;;17.14;48.84;100726.98;104810;1273;59834;-74
2022/05/08 12:50:24;;;;;;;8.10;3.10;;;;;;;16.87;49.35;100734.55;105031;1273;60546;-74
2022/05/08 12:53:12;;;;;;;7.40;3.10;;;;;;;16.72;50.27;100737.34;104976;1273;73311;-74
2022/05/08 12:56:00;;;;;;;7.50;3.20;;;;;;;16.57;50.93;100734.42;105014;1273;68205;-74
2022/05/08 13:01:55;;;;;;;7.30;3.10;;;;;;;16.18;51.86;100744.94;105134;1274;59702;-73
2022/05/08 13:04:45;;;;;;;9.10;3.10;;;;;;;16.15;51.38;100752.23;105031;1273;61268;-75
2022/05/08 13:07:33;;;;;;;7.50;2.80;;;;;;;16.18;51.60;100751.95;105039;1274;73669;-74
2022/05/08 13:10:20;;;;;;;7.60;2.80;;;;;;;16.19;52.03;100754.52;105098;1274;66879;-75
2022/05/08 13:13:08;;;;;;;7.90;3.00;;;;;;;16.09;52.02;100763.31;104922;1273;72946;-74
2022/05/08 13:15:58;;;;;;;9.20;3.00;;;;;;;15.86;52.29;100767.46;104968;1274;59736;-72
2022/05/08 13:18:47;;;;;;;7.50;2.60;;;;;;;15.64;52.92;100769.08;105239;1273;59592;-73
2022/05/08 13:21:37;;;;;;;8.50;3.00;;;;;;;15.51;53.41;100774.11;105116;1273;73176;-73
2022/05/08 13:24:25;;;;;;;7.50;3.50;;;;;;;15.38;54.09;100779.52;105039;1274;66518;-74
2022/05/08 13:27:14;;;;;;;9.60;3.30;;;;;;;15.22;54.10;100781.99;105222;1273;74291;-72
2022/05/08 13:30:04;;;;;;;8.80;3.60;;;;;;;15.13;54.16;100785.26;104950;1273;59715;-74
2022/05/08 13:32:53;;;;;;;7.50;3.10;;;;;;;15.06;54.39;100790.11;104850;1273;60740;-69
2022/05/08 13:35:41;;;;;;;7.70;3.00;;;;;;;14.99;53.94;100803.06;104907;1273;71839;-68
2022/05/08 13:38:30;;;;;;;7.90;3.00;;;;;;;14.99;54.22;100800.96;105282;1273;68669;-71
2022/05/08 13:41:18;;;;;;;7.70;3.10;;;;;;;14.94;53.83;100806.54;104874;1273;73051;-73